createdAt,value
2023-02-12T00:01:01.388Z,8.20
2023-02-12T00:03:28.274Z,8.40
2023-02-12T00:05:55.291Z,8.50
2023-02-12T00:08:22.164Z,8.80
2023-02-12T00:10:49.161Z,8.70
2023-02-12T00:13:16.115Z,8.50
2023-02-12T00:15:43.386Z,8.60
2023-02-12T00:18:10.317Z,8.90
2023-02-12T00:20:38.288Z,8.90
2023-02-12T00:23:05.830Z,8.50
2023-02-12T00:25:33.099Z,8.20
2023-02-12T00:27:59.804Z,8.30
2023-02-12T00:30:26.495Z,8.20
2023-02-12T00:32:53.440Z,8.00
2023-02-12T00:35:20.451Z,7.90
2023-02-12T00:37:47.176Z,7.90
2023-02-12T00:40:14.147Z,8.00
2023-02-12T00:42:40.797Z,8.20
2023-02-12T00:45:07.985Z,8.40
2023-02-12T00:47:34.859Z,8.60
2023-02-12T00:50:01.576Z,8.80
2023-02-12T00:52:28.565Z,8.90
2023-02-12T00:54:55.188Z,8.70
2023-02-12T00:57:21.880Z,8.60
2023-02-12T00:59:48.494Z,8.80
2023-02-12T01:02:15.154Z,9.00
2023-02-12T01:04:42.265Z,9.00
2023-02-12T01:07:09.590Z,8.90
2023-02-12T01:09:36.707Z,9.00
2023-02-12T01:12:03.810Z,9.20
2023-02-12T01:14:30.839Z,8.90
2023-02-12T01:16:57.841Z,8.90
2023-02-12T01:19:24.757Z,8.80
2023-02-12T01:21:51.529Z,8.80
2023-02-12T01:24:18.591Z,8.70
2023-02-12T01:26:45.618Z,8.40
2023-02-12T01:29:12.294Z,8.50
2023-02-12T01:31:39.685Z,8.80
2023-02-12T01:34:07.096Z,9.00
2023-02-12T01:36:33.955Z,9.10
2023-02-12T01:39:02.809Z,9.00
2023-02-12T01:41:37.077Z,8.70
2023-02-12T01:44:08.641Z,8.50
2023-02-12T01:46:35.916Z,8.70
2023-02-12T01:49:04.753Z,8.50
2023-02-12T01:51:32.603Z,8.70
2023-02-12T01:54:01.364Z,8.40
2023-02-12T01:56:28.539Z,8.40
2023-02-12T01:58:57.699Z,8.40
2023-02-12T02:01:29.811Z,8.40
2023-02-12T02:04:01.174Z,8.30
2023-02-12T02:06:44.624Z,8.10
2023-02-12T02:09:11.445Z,7.90
2023-02-12T02:11:57.187Z,7.80
2023-02-12T02:14:32.688Z,8.20
2023-02-12T02:17:18.242Z,8.50
2023-02-12T02:19:51.553Z,8.70
2023-02-12T02:22:40.952Z,8.70
2023-02-12T02:25:23.305Z,8.90
2023-02-12T02:27:52.781Z,8.80
2023-02-12T02:30:31.468Z,8.70
2023-02-12T02:33:13.745Z,8.80
2023-02-12T02:35:48.990Z,8.80
2023-02-12T02:38:30.927Z,8.80
2023-02-12T02:41:03.774Z,8.70
2023-02-12T02:43:35.146Z,8.70
2023-02-12T02:46:16.171Z,8.90
2023-02-12T02:48:45.598Z,8.70
2023-02-12T02:51:15.451Z,8.40
2023-02-12T02:54:08.411Z,8.30
2023-02-12T02:56:36.814Z,8.00
2023-02-12T02:59:22.077Z,7.90
2023-02-12T03:01:52.959Z,8.20
2023-02-12T03:04:30.959Z,8.40
2023-02-12T03:07:10.176Z,8.30
2023-02-12T03:09:55.882Z,8.30
2023-02-12T03:12:27.376Z,8.40
2023-02-12T03:15:02.989Z,8.60
2023-02-12T03:17:34.878Z,8.70
2023-02-12T03:20:07.961Z,8.50
2023-02-12T03:22:36.417Z,8.40
2023-02-12T03:25:14.095Z,8.30
2023-02-12T03:27:47.042Z,8.30
2023-02-12T03:30:13.918Z,8.00
2023-02-12T03:32:46.566Z,7.90
2023-02-12T03:35:22.574Z,8.10
2023-02-12T03:38:08.120Z,8.20
2023-02-12T03:40:37.618Z,8.10
2023-02-12T03:43:18.909Z,8.30
2023-02-12T03:46:05.901Z,8.10
2023-02-12T03:48:45.200Z,7.80
2023-02-12T03:51:38.060Z,7.90
2023-02-12T03:54:05.889Z,8.00
2023-02-12T03:56:53.785Z,8.00
2023-02-12T03:59:21.464Z,7.70
2023-02-12T04:01:49.398Z,7.50
2023-02-12T04:04:17.234Z,7.70
2023-02-12T04:06:45.764Z,7.80
2023-02-12T04:09:12.995Z,7.90
2023-02-12T04:11:58.868Z,8.10
2023-02-12T04:14:38.228Z,8.10
2023-02-12T04:17:09.001Z,8.10
2023-02-12T04:19:54.739Z,8.20
2023-02-12T04:22:37.088Z,8.40
2023-02-12T04:25:20.587Z,8.30
2023-02-12T04:27:57.464Z,8.30
2023-02-12T04:30:27.621Z,8.20
2023-02-12T04:32:57.125Z,8.20
2023-02-12T04:35:27.081Z,8.20
2023-02-12T04:37:56.580Z,8.00
2023-02-12T04:40:23.471Z,7.90
2023-02-12T04:42:51.594Z,7.90
2023-02-12T04:45:22.993Z,7.80
2023-02-12T04:47:49.698Z,7.90
2023-02-12T04:50:16.806Z,8.00
2023-02-12T04:52:44.647Z,8.00
2023-02-12T04:55:11.830Z,8.20
2023-02-12T04:57:38.760Z,8.20
2023-02-12T05:00:06.586Z,8.20
2023-02-12T05:02:34.041Z,8.30
2023-02-12T05:05:00.764Z,8.40
2023-02-12T05:07:27.755Z,8.50
2023-02-12T05:09:54.868Z,8.60
2023-02-12T05:12:21.887Z,8.70
2023-02-12T05:14:48.886Z,8.60
2023-02-12T05:17:15.533Z,8.60
2023-02-12T05:19:42.179Z,8.50
2023-02-12T05:22:09.256Z,8.50
2023-02-12T05:24:37.275Z,8.50
2023-02-12T05:27:04.131Z,8.40
2023-02-12T05:29:30.770Z,8.60
2023-02-12T05:31:57.943Z,8.60
2023-02-12T05:34:24.880Z,8.60
2023-02-12T05:36:51.900Z,8.60
2023-02-12T05:39:18.651Z,8.30
2023-02-12T05:41:45.592Z,8.30
2023-02-12T05:44:12.547Z,8.20
2023-02-12T05:46:39.414Z,8.20
2023-02-12T05:49:06.339Z,7.90
2023-02-12T05:51:33.459Z,8.10
2023-02-12T05:54:03.712Z,8.40
2023-02-12T05:56:32.086Z,8.50
2023-02-12T05:59:03.751Z,8.30
2023-02-12T06:01:32.158Z,8.00
2023-02-12T06:03:59.854Z,8.00
2023-02-12T06:06:27.279Z,8.10
2023-02-12T06:08:55.215Z,8.20
2023-02-12T06:11:22.094Z,8.30
2023-02-12T06:13:49.765Z,8.50
2023-02-12T06:16:20.790Z,8.50
2023-02-12T06:18:48.058Z,8.40
2023-02-12T06:21:15.043Z,8.10
2023-02-12T06:23:41.853Z,7.90
2023-02-12T06:26:08.859Z,7.90
2023-02-12T06:28:35.974Z,7.90
2023-02-12T06:31:03.062Z,7.80
2023-02-12T06:33:30.154Z,8.10
2023-02-12T06:35:57.520Z,8.10
2023-02-12T06:38:24.511Z,8.10
2023-02-12T06:40:51.154Z,8.00
2023-02-12T06:43:18.240Z,7.90
2023-02-12T06:45:45.338Z,7.70
2023-02-12T06:48:13.086Z,7.50
2023-02-12T06:50:39.790Z,7.60
2023-02-12T06:53:06.862Z,7.80
2023-02-12T06:55:34.420Z,8.00
2023-02-12T06:58:01.349Z,8.20
2023-02-12T07:00:28.056Z,8.20
2023-02-12T07:02:56.968Z,8.00
2023-02-12T07:05:24.338Z,8.00
2023-02-12T07:07:51.088Z,8.30
2023-02-12T07:10:27.121Z,8.40
2023-02-12T07:12:59.945Z,8.40
2023-02-12T07:15:38.714Z,8.60
2023-02-12T07:18:14.822Z,8.70
2023-02-12T07:20:43.581Z,8.90
2023-02-12T07:23:13.515Z,8.90
2023-02-12T07:25:40.515Z,8.90
2023-02-12T07:28:11.751Z,8.80
2023-02-12T07:30:42.772Z,8.80
2023-02-12T07:33:15.629Z,8.60
2023-02-12T07:35:44.854Z,8.60
2023-02-12T07:38:11.827Z,8.60
2023-02-12T07:40:49.445Z,8.70
2023-02-12T07:43:16.484Z,8.50
2023-02-12T07:45:43.537Z,8.30
2023-02-12T07:48:12.709Z,8.20
2023-02-12T07:50:41.774Z,8.20
2023-02-12T07:53:09.589Z,7.70
2023-02-12T07:55:37.486Z,7.60
2023-02-12T07:58:06.173Z,7.40
2023-02-12T08:00:32.780Z,7.60
2023-02-12T08:03:00.651Z,7.60
2023-02-12T08:05:28.048Z,7.80
2023-02-12T08:07:56.034Z,8.20
2023-02-12T08:10:23.852Z,8.40
2023-02-12T08:12:51.704Z,8.40
2023-02-12T08:15:18.773Z,8.30
2023-02-12T08:17:45.782Z,8.30
2023-02-12T08:20:12.902Z,8.60
2023-02-12T08:22:39.880Z,8.60
2023-02-12T08:25:07.853Z,8.50
2023-02-12T08:27:35.734Z,8.40
2023-02-12T08:30:02.353Z,8.50
2023-02-12T08:32:30.888Z,8.40
2023-02-12T08:34:59.627Z,8.20
2023-02-12T08:37:26.302Z,8.00
2023-02-12T08:39:54.210Z,8.20
2023-02-12T08:42:22.918Z,8.30
2023-02-12T08:44:49.854Z,8.00
2023-02-12T08:47:17.753Z,7.50
2023-02-12T08:49:47.678Z,7.40
2023-02-12T08:52:37.983Z,7.60
2023-02-12T08:55:05.984Z,7.50
2023-02-12T08:57:34.402Z,7.60
2023-02-12T09:00:06.830Z,8.10
2023-02-12T09:02:35.730Z,8.20
2023-02-12T09:05:02.722Z,8.20
2023-02-12T09:07:37.614Z,8.50
2023-02-12T09:10:06.880Z,8.30
2023-02-12T09:12:33.676Z,8.50
2023-02-12T09:15:01.574Z,8.30
2023-02-12T09:17:30.599Z,8.50
2023-02-12T09:20:07.629Z,8.60
2023-02-12T09:22:40.260Z,8.30
2023-02-12T09:25:13.020Z,8.30
2023-02-12T09:27:43.837Z,8.30
2023-02-12T09:30:13.864Z,8.60
2023-02-12T09:32:41.693Z,8.90
2023-02-12T09:35:12.466Z,8.30
2023-02-12T09:37:40.461Z,8.00
2023-02-12T09:40:21.510Z,8.20
2023-02-12T09:43:07.051Z,8.30
2023-02-12T09:45:39.333Z,8.70
2023-02-12T09:48:25.253Z,8.80
2023-02-12T09:50:53.849Z,8.60
2023-02-12T09:56:57.102Z,9.00
2023-02-12T09:59:57.337Z,9.10
2023-02-12T10:02:24.194Z,8.90
2023-02-12T10:05:03.967Z,9.10
2023-02-12T10:07:31.146Z,9.20
2023-02-12T10:10:08.116Z,9.30
2023-02-12T10:12:38.286Z,9.30
2023-02-12T10:15:12.691Z,9.10
2023-02-12T10:17:59.960Z,9.30
2023-02-12T10:20:26.839Z,9.00
2023-02-12T10:23:07.737Z,9.10
2023-02-12T10:25:56.537Z,9.40
2023-02-12T10:28:23.603Z,9.70
2023-02-12T10:31:01.080Z,9.90
2023-02-12T10:33:37.805Z,10.00
2023-02-12T10:36:24.786Z,10.10
2023-02-12T10:38:53.892Z,10.20
2023-02-12T10:41:20.497Z,10.20
2023-02-12T10:43:48.566Z,10.10
2023-02-12T10:46:16.253Z,10.10
2023-02-12T10:48:48.038Z,9.70
2023-02-12T10:51:24.312Z,9.40
2023-02-12T10:53:51.024Z,9.70
2023-02-12T10:56:20.085Z,9.60
2023-02-12T10:58:49.980Z,9.80
2023-02-12T11:01:19.294Z,9.90
2023-02-12T11:03:46.976Z,10.00
2023-02-12T11:06:18.932Z,10.00
2023-02-12T11:08:45.716Z,10.10
2023-02-12T11:11:14.530Z,10.10
2023-02-12T11:13:46.362Z,10.10
2023-02-12T11:16:13.296Z,10.10
2023-02-12T11:18:40.458Z,9.90
2023-02-12T11:21:09.448Z,9.40
2023-02-12T11:23:43.317Z,9.50
2023-02-12T11:26:19.068Z,9.50
2023-02-12T11:28:58.319Z,9.10
2023-02-12T11:31:27.171Z,8.60
2023-02-12T11:34:12.308Z,8.50
2023-02-12T11:36:43.951Z,8.40
2023-02-12T11:39:32.631Z,8.50
2023-02-12T11:42:06.717Z,8.70
2023-02-12T11:44:37.485Z,8.80
2023-02-12T11:47:09.335Z,9.10
2023-02-12T11:49:44.514Z,9.10
2023-02-12T11:52:20.565Z,9.30
2023-02-12T11:54:49.310Z,9.20
2023-02-12T11:57:36.080Z,9.30
2023-02-12T12:00:06.462Z,9.40
2023-02-12T12:02:39.185Z,9.40
2023-02-12T12:05:16.076Z,9.60
2023-02-12T12:07:45.587Z,9.80
2023-02-12T12:10:15.926Z,9.90
2023-02-12T12:12:53.502Z,10.00
2023-02-12T12:15:42.302Z,10.40
2023-02-12T12:18:46.985Z,11.00
2023-02-12T12:21:29.279Z,10.50
2023-02-12T12:24:01.607Z,10.70
2023-02-12T12:26:29.500Z,10.70
2023-02-12T12:29:03.978Z,10.70
2023-02-12T12:31:33.314Z,10.20
2023-02-12T12:34:29.013Z,10.10
2023-02-12T12:37:06.902Z,9.90
2023-02-12T12:39:45.381Z,10.00
2023-02-12T12:42:15.268Z,10.10
2023-02-12T12:44:47.397Z,10.00
2023-02-12T12:47:36.639Z,10.00
2023-02-12T12:50:38.336Z,9.90
2023-02-12T12:53:28.051Z,9.70
2023-02-12T12:56:18.160Z,9.80
2023-02-12T12:59:17.409Z,10.00
2023-02-12T13:02:22.213Z,9.70
2023-02-12T13:05:08.909Z,9.90
2023-02-12T13:08:03.487Z,9.60
2023-02-12T13:10:39.439Z,9.20
2023-02-12T13:13:13.801Z,9.60
2023-02-12T13:15:52.726Z,9.70
2023-02-12T13:18:34.620Z,9.60
2023-02-12T13:21:12.025Z,9.50
2023-02-12T13:23:39.191Z,9.50
2023-02-12T13:26:13.953Z,9.60
2023-02-12T13:28:43.957Z,9.70
2023-02-12T13:31:32.073Z,10.10
2023-02-12T13:34:03.231Z,10.50
2023-02-12T13:36:32.488Z,10.40
2023-02-12T13:39:05.726Z,10.50
2023-02-12T13:41:35.675Z,10.40
2023-02-12T13:44:21.266Z,10.10
2023-02-12T13:46:50.126Z,9.90
2023-02-12T13:49:35.621Z,9.80
2023-02-12T13:52:19.777Z,9.80
2023-02-12T13:55:05.634Z,9.70
2023-02-12T13:57:33.872Z,9.70
2023-02-12T14:00:06.495Z,9.80
2023-02-12T14:02:33.512Z,9.80
2023-02-12T14:05:21.154Z,9.70
2023-02-12T14:07:51.460Z,10.00
2023-02-12T14:10:23.530Z,10.10
2023-02-12T14:12:51.289Z,10.30
2023-02-12T14:15:22.333Z,9.90
2023-02-12T14:17:57.049Z,9.60
2023-02-12T14:20:25.868Z,9.50
2023-02-12T14:23:02.491Z,9.50
2023-02-12T14:25:48.252Z,9.60
2023-02-12T14:28:21.577Z,9.50
2023-02-12T14:31:07.112Z,9.50
2023-02-12T14:33:34.835Z,9.70
2023-02-12T14:36:18.254Z,9.90
2023-02-12T14:38:48.161Z,10.00
2023-02-12T14:41:34.190Z,9.70
2023-02-12T14:44:23.353Z,9.50
2023-02-12T14:46:54.487Z,9.30
2023-02-12T14:49:24.599Z,9.20
2023-02-12T14:51:57.403Z,9.10
2023-02-12T14:54:36.082Z,9.00
2023-02-12T14:57:08.996Z,9.00
2023-02-12T14:59:39.876Z,9.10
2023-02-12T15:02:08.401Z,9.20
2023-02-12T15:04:38.237Z,9.40
2023-02-12T15:07:10.459Z,9.40
2023-02-12T15:09:41.633Z,9.50
2023-02-12T15:12:17.788Z,9.60
2023-02-12T15:14:47.175Z,9.70
2023-02-12T15:17:28.168Z,9.60
2023-02-12T15:19:54.934Z,9.60
2023-02-12T15:22:26.327Z,9.20
2023-02-12T15:24:53.181Z,9.10
2023-02-12T15:27:21.818Z,9.10
2023-02-12T15:29:49.831Z,8.90
2023-02-12T15:32:28.860Z,8.90
2023-02-12T15:34:56.166Z,8.90
2023-02-12T15:37:25.402Z,9.00
2023-02-12T15:39:53.578Z,9.00
2023-02-12T15:42:29.577Z,8.90
2023-02-12T15:45:16.956Z,9.00
2023-02-12T15:47:44.531Z,9.30
2023-02-12T15:50:16.924Z,9.50
2023-02-12T15:52:46.277Z,9.60
2023-02-12T15:55:17.825Z,9.40
2023-02-12T15:57:49.551Z,9.20
2023-02-12T16:02:51.493Z,9.00
2023-02-12T16:05:18.370Z,8.90
2023-02-12T16:07:46.677Z,8.70
2023-02-12T16:10:19.731Z,8.50
2023-02-12T16:12:48.316Z,8.50
2023-02-12T16:15:27.218Z,8.30
2023-02-12T16:17:53.966Z,8.50
2023-02-12T16:20:25.525Z,8.40
2023-02-12T16:22:53.327Z,8.40
2023-02-12T16:25:19.974Z,8.50
2023-02-12T16:28:06.342Z,8.60
2023-02-12T16:30:42.730Z,8.70
2023-02-12T16:33:28.155Z,9.10
2023-02-12T16:36:04.642Z,9.10
2023-02-12T16:38:37.914Z,9.30
2023-02-12T16:41:26.090Z,8.90
2023-02-12T16:44:01.959Z,8.60
2023-02-12T16:46:30.496Z,9.00
2023-02-12T16:48:57.946Z,9.00
2023-02-12T16:51:37.102Z,9.10
2023-02-12T16:54:23.856Z,8.90
2023-02-12T16:56:52.815Z,8.90
2023-02-12T16:59:19.844Z,8.80
2023-02-12T17:02:09.588Z,8.80
2023-02-12T17:04:36.456Z,9.00
2023-02-12T17:07:04.494Z,9.00
2023-02-12T17:09:34.281Z,9.20
2023-02-12T17:12:02.103Z,9.30
2023-02-12T17:14:28.855Z,9.30
2023-02-12T17:16:55.848Z,9.20
2023-02-12T17:19:22.892Z,8.80
2023-02-12T17:21:51.962Z,8.80
2023-02-12T17:24:24.282Z,8.80
2023-02-12T17:26:51.206Z,8.70
2023-02-12T17:29:24.899Z,8.50
2023-02-12T17:31:56.156Z,8.40
2023-02-12T17:34:23.567Z,8.30
2023-02-12T17:36:52.760Z,8.50
2023-02-12T17:39:20.137Z,8.30
2023-02-12T17:41:51.535Z,8.20
2023-02-12T17:44:19.534Z,8.10
2023-02-12T17:46:47.475Z,8.30
2023-02-12T17:49:14.710Z,8.30
2023-02-12T17:51:42.887Z,8.30
2023-02-12T17:54:12.209Z,8.30
2023-02-12T17:56:40.155Z,8.30
2023-02-12T17:59:07.180Z,8.50
2023-02-12T18:01:37.246Z,8.60
2023-02-12T18:04:04.237Z,8.70
2023-02-12T18:06:33.211Z,8.70
2023-02-12T18:09:01.768Z,8.60
2023-02-12T18:11:29.426Z,8.50
2023-02-12T18:13:57.074Z,8.50
2023-02-12T18:16:24.971Z,8.50
2023-02-12T18:18:51.986Z,8.20
2023-02-12T18:21:20.856Z,8.10
2023-02-12T18:23:48.982Z,8.10
2023-02-12T18:26:17.722Z,8.00
2023-02-12T18:28:44.560Z,7.90
2023-02-12T18:31:14.232Z,7.90
2023-02-12T18:33:41.414Z,7.90
2023-02-12T18:36:11.591Z,8.00
2023-02-12T18:38:39.582Z,8.20
2023-02-12T18:41:15.998Z,8.40
2023-02-12T18:43:44.632Z,8.20
2023-02-12T18:46:16.157Z,8.10
2023-02-12T18:48:45.357Z,8.20
2023-02-12T18:51:18.306Z,8.20
2023-02-12T18:53:46.596Z,8.20
2023-02-12T18:56:14.774Z,8.30
2023-02-12T18:58:42.084Z,8.30
2023-02-12T19:01:12.980Z,8.20
2023-02-12T19:03:41.020Z,8.10
2023-02-12T19:06:09.349Z,8.00
2023-02-12T19:08:36.272Z,7.80
2023-02-12T19:11:03.292Z,7.80
2023-02-12T19:13:30.647Z,7.70
2023-02-12T19:15:58.036Z,7.70
2023-02-12T19:18:24.987Z,7.70
2023-02-12T19:20:52.068Z,7.70
2023-02-12T19:23:19.127Z,7.60
2023-02-12T19:25:46.132Z,7.60
2023-02-12T19:28:14.443Z,7.60
2023-02-12T19:30:41.869Z,7.60
2023-02-12T19:33:08.850Z,7.60
2023-02-12T19:35:35.963Z,7.60
2023-02-12T19:38:05.229Z,7.70
2023-02-12T19:40:33.250Z,7.90
2023-02-12T19:43:00.519Z,8.00
2023-02-12T19:45:27.692Z,7.90
2023-02-12T19:47:55.101Z,7.90
2023-02-12T19:50:22.364Z,7.80
2023-02-12T19:52:49.327Z,7.80
2023-02-12T19:55:16.683Z,7.70
2023-02-12T19:57:44.655Z,7.70
2023-02-12T20:00:11.882Z,7.70
2023-02-12T20:02:38.880Z,7.70
2023-02-12T20:05:09.576Z,7.70
2023-02-12T20:07:39.009Z,7.70
2023-02-12T20:10:12.490Z,7.80
2023-02-12T20:12:41.536Z,8.00
2023-02-12T20:15:09.086Z,8.10
2023-02-12T20:17:38.674Z,8.10
2023-02-12T20:20:07.564Z,8.20
2023-02-12T20:22:38.614Z,8.40
2023-02-12T20:25:07.981Z,8.50
2023-02-12T20:27:35.130Z,8.50
2023-02-12T20:30:07.284Z,8.60
2023-02-12T20:32:34.701Z,8.80
2023-02-12T20:35:02.912Z,8.80
2023-02-12T20:37:29.857Z,8.90
2023-02-12T20:39:58.376Z,8.70
2023-02-12T20:42:27.858Z,8.80
2023-02-12T20:44:54.964Z,8.60
2023-02-12T20:47:28.646Z,8.70
2023-02-12T20:49:56.475Z,8.90
2023-02-12T20:52:24.408Z,8.60
2023-02-12T20:54:51.421Z,8.70
2023-02-12T20:57:20.898Z,8.70
2023-02-12T20:59:49.860Z,8.70
2023-02-12T21:02:34.341Z,8.80
2023-02-12T21:05:26.287Z,8.90
2023-02-12T21:07:59.467Z,8.80
2023-02-12T21:10:29.603Z,8.80
2023-02-12T21:13:28.726Z,9.10
2023-02-12T21:16:09.384Z,8.90
2023-02-12T21:18:40.291Z,8.90
2023-02-12T21:21:13.233Z,8.40
2023-02-12T21:23:40.629Z,8.50
2023-02-12T21:26:11.125Z,8.70
2023-02-12T21:28:39.231Z,8.70
2023-02-12T21:31:07.830Z,8.30
2023-02-12T21:33:37.773Z,8.30
2023-02-12T21:36:17.982Z,8.40
2023-02-12T21:38:46.959Z,8.20
2023-02-12T21:41:15.221Z,8.20
2023-02-12T21:43:44.655Z,8.30
2023-02-12T21:46:15.427Z,8.20
2023-02-12T21:48:43.586Z,8.10
2023-02-12T21:51:33.643Z,8.30
2023-02-12T21:54:03.117Z,8.40
2023-02-12T21:56:32.612Z,8.60
2023-02-12T21:59:05.994Z,8.60
2023-02-12T22:01:34.562Z,8.30
2023-02-12T22:04:05.755Z,8.10
2023-02-12T22:06:39.798Z,8.40
2023-02-12T22:09:08.073Z,8.60
2023-02-12T22:11:36.526Z,8.70
2023-02-12T22:14:12.412Z,8.90
2023-02-12T22:16:42.652Z,8.40
2023-02-12T22:19:10.572Z,8.30
2023-02-12T22:21:40.915Z,8.30
2023-02-12T22:24:11.328Z,8.40
2023-02-12T22:26:38.746Z,8.60
2023-02-12T22:29:08.340Z,8.70
2023-02-12T22:31:38.764Z,8.90
2023-02-12T22:34:08.559Z,8.80
2023-02-12T22:36:36.602Z,8.80
2023-02-12T22:39:05.009Z,8.70
2023-02-12T22:41:33.891Z,8.60
2023-02-12T22:44:09.706Z,8.70
2023-02-12T22:47:01.876Z,8.80
2023-02-12T22:49:28.682Z,8.60
2023-02-12T22:51:59.673Z,8.50
2023-02-12T22:54:27.558Z,8.40
2023-02-12T22:56:54.513Z,8.20
2023-02-12T22:59:22.455Z,8.00
2023-02-12T23:01:53.514Z,7.70
2023-02-12T23:04:20.436Z,7.60
2023-02-12T23:06:49.374Z,7.50
2023-02-12T23:09:19.082Z,7.40
2023-02-12T23:11:47.662Z,7.20
2023-02-12T23:14:14.679Z,7.10
2023-02-12T23:16:41.670Z,7.10
2023-02-12T23:21:44.773Z,7.00
2023-02-12T23:24:12.890Z,7.10
2023-02-12T23:26:39.676Z,7.00
2023-02-12T23:29:10.819Z,6.80
2023-02-12T23:31:37.943Z,6.60
2023-02-12T23:34:04.858Z,6.50
2023-02-12T23:36:34.809Z,6.40
2023-02-12T23:39:07.005Z,6.30
2023-02-12T23:41:39.771Z,6.10
2023-02-12T23:44:10.047Z,5.90
2023-02-12T23:46:38.933Z,5.80
2023-02-12T23:49:05.576Z,5.80
2023-02-12T23:51:32.712Z,5.80
2023-02-12T23:54:00.046Z,5.80
2023-02-12T23:56:27.113Z,5.80
2023-02-12T23:58:55.597Z,5.80
